sensor_id;sensor_type;location;lat;lon;timestamp;P1;durP1;ratioP1;P2;durP2;ratioP2
32814;SDS011;19165;48.182;16.374;2022-07-17T00:01:23;3.17;;;1.48;;
32814;SDS011;19165;48.182;16.374;2022-07-17T00:03:49;2.75;;;1.40;;
32814;SDS011;19165;48.182;16.374;2022-07-17T00:06:15;2.22;;;1.40;;
32814;SDS011;19165;48.182;16.374;2022-07-17T00:08:42;6.00;;;1.33;;
32814;SDS011;19165;48.182;16.374;2022-07-17T00:11:08;9.40;;;1.50;;
32814;SDS011;19165;48.182;16.374;2022-07-17T00:13:34;5.22;;;1.50;;
32814;SDS011;19165;48.182;16.374;2022-07-17T00:16:00;2.35;;;1.15;;
32814;SDS011;19165;48.182;16.374;2022-07-17T00:18:26;5.03;;;1.70;;
32814;SDS011;19165;48.182;16.374;2022-07-17T00:20:52;4.35;;;1.30;;
32814;SDS011;19165;48.182;16.374;2022-07-17T00:23:18;5.25;;;1.25;;
32814;SDS011;19165;48.182;16.374;2022-07-17T00:25:45;5.70;;;1.25;;
32814;SDS011;19165;48.182;16.374;2022-07-17T00:28:11;2.10;;;1.30;;
32814;SDS011;19165;48.182;16.374;2022-07-17T00:30:37;5.68;;;1.30;;
32814;SDS011;19165;48.182;16.374;2022-07-17T00:33:03;2.55;;;1.27;;
32814;SDS011;19165;48.182;16.374;2022-07-17T00:35:30;1.98;;;1.10;;
32814;SDS011;19165;48.182;16.374;2022-07-17T00:37:56;2.78;;;1.00;;
32814;SDS011;19165;48.182;16.374;2022-07-17T00:40:22;2.85;;;1.30;;
32814;SDS011;19165;48.182;16.374;2022-07-17T00:42:51;2.65;;;1.30;;
32814;SDS011;19165;48.182;16.374;2022-07-17T00:45:17;1.60;;;0.95;;
32814;SDS011;19165;48.182;16.374;2022-07-17T00:47:48;4.80;;;1.13;;
32814;SDS011;19165;48.182;16.374;2022-07-17T00:52:43;3.22;;;1.30;;
32814;SDS011;19165;48.182;16.374;2022-07-17T00:55:09;3.47;;;1.00;;
32814;SDS011;19165;48.182;16.374;2022-07-17T00:57:37;2.13;;;1.10;;
32814;SDS011;19165;48.182;16.374;2022-07-17T01:00:07;1.70;;;1.00;;
32814;SDS011;19165;48.182;16.374;2022-07-17T01:02:36;3.95;;;1.13;;
32814;SDS011;19165;48.182;16.374;2022-07-17T01:05:03;3.50;;;1.00;;
32814;SDS011;19165;48.182;16.374;2022-07-17T01:07:29;1.25;;;1.00;;
32814;SDS011;19165;48.182;16.374;2022-07-17T01:09:55;3.13;;;1.15;;
32814;SDS011;19165;48.182;16.374;2022-07-17T01:12:21;2.03;;;1.35;;
32814;SDS011;19165;48.182;16.374;2022-07-17T01:14:48;4.57;;;1.17;;
32814;SDS011;19165;48.182;16.374;2022-07-17T01:17:17;2.08;;;1.17;;
32814;SDS011;19165;48.182;16.374;2022-07-17T01:19:43;2.97;;;1.27;;
32814;SDS011;19165;48.182;16.374;2022-07-17T01:22:10;3.28;;;1.30;;
32814;SDS011;19165;48.182;16.374;2022-07-17T01:24:38;1.80;;;1.10;;
32814;SDS011;19165;48.182;16.374;2022-07-17T01:27:04;3.85;;;1.25;;
32814;SDS011;19165;48.182;16.374;2022-07-17T01:29:30;4.00;;;1.23;;
32814;SDS011;19165;48.182;16.374;2022-07-17T01:31:56;2.78;;;1.00;;
32814;SDS011;19165;48.182;16.374;2022-07-17T01:34:22;3.60;;;1.10;;
32814;SDS011;19165;48.182;16.374;2022-07-17T01:36:48;2.50;;;1.00;;
32814;SDS011;19165;48.182;16.374;2022-07-17T01:39:15;1.63;;;1.00;;
32814;SDS011;19165;48.182;16.374;2022-07-17T01:41:41;3.60;;;1.20;;
32814;SDS011;19165;48.182;16.374;2022-07-17T01:44:07;3.22;;;1.10;;
32814;SDS011;19165;48.182;16.374;2022-07-17T01:46:33;3.75;;;1.23;;
32814;SDS011;19165;48.182;16.374;2022-07-17T01:48:59;3.28;;;1.00;;
32814;SDS011;19165;48.182;16.374;2022-07-17T01:51:28;5.53;;;1.40;;
32814;SDS011;19165;48.182;16.374;2022-07-17T01:53:54;2.08;;;1.20;;
32814;SDS011;19165;48.182;16.374;2022-07-17T01:56:22;2.28;;;1.08;;
32814;SDS011;19165;48.182;16.374;2022-07-17T01:58:48;3.05;;;1.20;;
32814;SDS011;19165;48.182;16.374;2022-07-17T02:01:14;4.13;;;1.23;;
32814;SDS011;19165;48.182;16.374;2022-07-17T02:03:40;3.67;;;1.10;;
32814;SDS011;19165;48.182;16.374;2022-07-17T02:06:06;2.70;;;1.17;;
32814;SDS011;19165;48.182;16.374;2022-07-17T02:08:34;3.00;;;1.20;;
32814;SDS011;19165;48.182;16.374;2022-07-17T02:11:00;3.13;;;1.17;;
32814;SDS011;19165;48.182;16.374;2022-07-17T02:13:28;3.85;;;1.20;;
32814;SDS011;19165;48.182;16.374;2022-07-17T02:15:53;1.98;;;1.00;;
32814;SDS011;19165;48.182;16.374;2022-07-17T02:18:19;3.50;;;1.20;;
32814;SDS011;19165;48.182;16.374;2022-07-17T02:20:45;3.08;;;1.42;;
32814;SDS011;19165;48.182;16.374;2022-07-17T02:23:14;2.38;;;1.60;;
32814;SDS011;19165;48.182;16.374;2022-07-17T02:25:41;2.35;;;1.30;;
32814;SDS011;19165;48.182;16.374;2022-07-17T02:28:07;4.35;;;1.55;;
32814;SDS011;19165;48.182;16.374;2022-07-17T02:30:34;4.30;;;1.60;;
32814;SDS011;19165;48.182;16.374;2022-07-17T02:33:00;6.15;;;1.80;;
32814;SDS011;19165;48.182;16.374;2022-07-17T02:35:26;4.25;;;1.70;;
32814;SDS011;19165;48.182;16.374;2022-07-17T02:37:52;4.50;;;1.58;;
32814;SDS011;19165;48.182;16.374;2022-07-17T02:40:18;2.92;;;1.42;;
32814;SDS011;19165;48.182;16.374;2022-07-17T02:42:43;5.07;;;2.08;;
32814;SDS011;19165;48.182;16.374;2022-07-17T02:45:10;6.18;;;1.80;;
32814;SDS011;19165;48.182;16.374;2022-07-17T02:47:37;4.20;;;2.00;;
32814;SDS011;19165;48.182;16.374;2022-07-17T02:50:04;3.33;;;2.00;;
32814;SDS011;19165;48.182;16.374;2022-07-17T02:52:32;5.68;;;2.00;;
32814;SDS011;19165;48.182;16.374;2022-07-17T02:54:58;5.97;;;1.90;;
32814;SDS011;19165;48.182;16.374;2022-07-17T02:57:24;3.20;;;1.80;;
32814;SDS011;19165;48.182;16.374;2022-07-17T02:59:50;2.72;;;1.95;;
32814;SDS011;19165;48.182;16.374;2022-07-17T03:02:16;5.10;;;1.92;;
32814;SDS011;19165;48.182;16.374;2022-07-17T03:04:43;3.83;;;1.63;;
32814;SDS011;19165;48.182;16.374;2022-07-17T03:07:09;3.75;;;1.70;;
32814;SDS011;19165;48.182;16.374;2022-07-17T03:09:35;3.85;;;1.73;;
32814;SDS011;19165;48.182;16.374;2022-07-17T03:12:01;6.15;;;1.77;;
32814;SDS011;19165;48.182;16.374;2022-07-17T03:14:27;5.80;;;2.15;;
32814;SDS011;19165;48.182;16.374;2022-07-17T03:16:53;5.50;;;2.10;;
32814;SDS011;19165;48.182;16.374;2022-07-17T03:19:19;7.55;;;2.05;;
32814;SDS011;19165;48.182;16.374;2022-07-17T03:21:47;6.03;;;1.48;;
32814;SDS011;19165;48.182;16.374;2022-07-17T03:24:13;2.92;;;1.45;;
32814;SDS011;19165;48.182;16.374;2022-07-17T03:26:39;5.20;;;1.77;;
32814;SDS011;19165;48.182;16.374;2022-07-17T03:29:05;2.33;;;1.52;;
32814;SDS011;19165;48.182;16.374;2022-07-17T03:31:31;5.90;;;1.80;;
32814;SDS011;19165;48.182;16.374;2022-07-17T03:33:57;3.08;;;1.50;;
32814;SDS011;19165;48.182;16.374;2022-07-17T03:36:23;3.88;;;1.40;;
32814;SDS011;19165;48.182;16.374;2022-07-17T03:38:50;3.55;;;2.45;;
32814;SDS011;19165;48.182;16.374;2022-07-17T03:41:16;6.25;;;3.58;;
32814;SDS011;19165;48.182;16.374;2022-07-17T03:43:42;4.90;;;1.63;;
32814;SDS011;19165;48.182;16.374;2022-07-17T03:46:09;7.07;;;1.80;;
32814;SDS011;19165;48.182;16.374;2022-07-17T03:48:35;10.18;;;2.58;;
32814;SDS011;19165;48.182;16.374;2022-07-17T03:51:02;4.75;;;1.88;;
32814;SDS011;19165;48.182;16.374;2022-07-17T03:53:28;3.75;;;2.30;;
32814;SDS011;19165;48.182;16.374;2022-07-17T03:55:55;5.45;;;2.03;;
32814;SDS011;19165;48.182;16.374;2022-07-17T03:58:21;2.85;;;1.60;;
32814;SDS011;19165;48.182;16.374;2022-07-17T04:00:47;4.50;;;1.88;;
32814;SDS011;19165;48.182;16.374;2022-07-17T04:03:13;3.58;;;1.85;;
32814;SDS011;19165;48.182;16.374;2022-07-17T04:05:39;4.43;;;1.60;;
32814;SDS011;19165;48.182;16.374;2022-07-17T04:08:05;3.05;;;2.00;;
32814;SDS011;19165;48.182;16.374;2022-07-17T04:10:31;6.57;;;1.85;;
32814;SDS011;19165;48.182;16.374;2022-07-17T04:12:58;5.00;;;1.70;;
32814;SDS011;19165;48.182;16.374;2022-07-17T04:15:24;6.43;;;1.77;;
32814;SDS011;19165;48.182;16.374;2022-07-17T04:18:09;4.45;;;1.73;;
32814;SDS011;19165;48.182;16.374;2022-07-17T04:20:35;5.15;;;1.83;;
32814;SDS011;19165;48.182;16.374;2022-07-17T04:23:01;2.78;;;1.73;;
32814;SDS011;19165;48.182;16.374;2022-07-17T04:25:26;2.47;;;1.63;;
32814;SDS011;19165;48.182;16.374;2022-07-17T04:27:52;3.22;;;1.90;;
32814;SDS011;19165;48.182;16.374;2022-07-17T04:30:20;6.60;;;1.88;;
32814;SDS011;19165;48.182;16.374;2022-07-17T04:32:46;5.38;;;1.67;;
32814;SDS011;19165;48.182;16.374;2022-07-17T04:35:11;4.32;;;1.85;;
32814;SDS011;19165;48.182;16.374;2022-07-17T04:37:37;3.65;;;1.70;;
32814;SDS011;19165;48.182;16.374;2022-07-17T04:40:04;4.50;;;2.03;;
32814;SDS011;19165;48.182;16.374;2022-07-17T04:42:31;4.53;;;1.95;;
32814;SDS011;19165;48.182;16.374;2022-07-17T04:44:56;6.63;;;1.90;;
32814;SDS011;19165;48.182;16.374;2022-07-17T04:47:24;4.65;;;1.95;;
32814;SDS011;19165;48.182;16.374;2022-07-17T04:49:50;2.33;;;1.40;;
32814;SDS011;19165;48.182;16.374;2022-07-17T04:52:16;3.42;;;1.30;;
32814;SDS011;19165;48.182;16.374;2022-07-17T04:54:41;2.35;;;1.40;;
32814;SDS011;19165;48.182;16.374;2022-07-17T04:57:07;3.15;;;1.52;;
32814;SDS011;19165;48.182;16.374;2022-07-17T04:59:33;1.98;;;1.60;;
32814;SDS011;19165;48.182;16.374;2022-07-17T05:02:02;3.25;;;1.60;;
32814;SDS011;19165;48.182;16.374;2022-07-17T05:04:29;3.25;;;1.70;;
32814;SDS011;19165;48.182;16.374;2022-07-17T05:06:55;2.90;;;1.83;;
32814;SDS011;19165;48.182;16.374;2022-07-17T05:09:21;2.78;;;1.60;;
32814;SDS011;19165;48.182;16.374;2022-07-17T05:11:47;3.45;;;1.50;;
32814;SDS011;19165;48.182;16.374;2022-07-17T05:14:13;5.75;;;1.63;;
32814;SDS011;19165;48.182;16.374;2022-07-17T05:16:39;3.28;;;1.52;;
32814;SDS011;19165;48.182;16.374;2022-07-17T05:19:05;4.03;;;1.67;;
32814;SDS011;19165;48.182;16.374;2022-07-17T05:21:32;4.03;;;1.60;;
32814;SDS011;19165;48.182;16.374;2022-07-17T05:23:58;3.35;;;1.80;;
32814;SDS011;19165;48.182;16.374;2022-07-17T05:26:24;4.85;;;1.75;;
32814;SDS011;19165;48.182;16.374;2022-07-17T05:28:50;4.45;;;1.80;;
32814;SDS011;19165;48.182;16.374;2022-07-17T05:31:16;2.85;;;1.65;;
32814;SDS011;19165;48.182;16.374;2022-07-17T05:33:42;1.55;;;1.13;;
32814;SDS011;19165;48.182;16.374;2022-07-17T05:36:08;5.03;;;2.10;;
32814;SDS011;19165;48.182;16.374;2022-07-17T05:38:36;5.05;;;1.50;;
32814;SDS011;19165;48.182;16.374;2022-07-17T05:41:02;2.10;;;1.45;;
32814;SDS011;19165;48.182;16.374;2022-07-17T05:43:28;3.92;;;1.48;;
32814;SDS011;19165;48.182;16.374;2022-07-17T05:45:54;4.43;;;1.50;;
32814;SDS011;19165;48.182;16.374;2022-07-17T05:48:21;2.45;;;1.73;;
32814;SDS011;19165;48.182;16.374;2022-07-17T05:50:47;2.95;;;1.45;;
32814;SDS011;19165;48.182;16.374;2022-07-17T05:53:13;3.30;;;1.50;;
32814;SDS011;19165;48.182;16.374;2022-07-17T05:55:41;5.65;;;1.58;;
32814;SDS011;19165;48.182;16.374;2022-07-17T05:58:07;4.80;;;1.38;;
32814;SDS011;19165;48.182;16.374;2022-07-17T06:00:33;3.60;;;1.80;;
32814;SDS011;19165;48.182;16.374;2022-07-17T06:03:00;2.25;;;1.33;;
32814;SDS011;19165;48.182;16.374;2022-07-17T06:05:26;3.25;;;1.50;;
32814;SDS011;19165;48.182;16.374;2022-07-17T06:07:53;2.95;;;1.20;;
32814;SDS011;19165;48.182;16.374;2022-07-17T06:10:19;5.32;;;1.20;;
32814;SDS011;19165;48.182;16.374;2022-07-17T06:12:47;6.30;;;1.20;;
32814;SDS011;19165;48.182;16.374;2022-07-17T06:15:13;2.20;;;1.10;;
32814;SDS011;19165;48.182;16.374;2022-07-17T06:17:39;4.60;;;1.27;;
32814;SDS011;19165;48.182;16.374;2022-07-17T06:20:05;2.33;;;1.15;;
32814;SDS011;19165;48.182;16.374;2022-07-17T06:22:32;2.20;;;1.02;;
32814;SDS011;19165;48.182;16.374;2022-07-17T06:24:57;2.83;;;0.95;;
32814;SDS011;19165;48.182;16.374;2022-07-17T06:27:23;6.43;;;1.35;;
32814;SDS011;19165;48.182;16.374;2022-07-17T06:29:51;5.07;;;1.10;;
32814;SDS011;19165;48.182;16.374;2022-07-17T06:32:17;4.20;;;1.20;;
32814;SDS011;19165;48.182;16.374;2022-07-17T06:34:43;3.53;;;1.15;;
32814;SDS011;19165;48.182;16.374;2022-07-17T06:37:09;3.33;;;1.38;;
32814;SDS011;19165;48.182;16.374;2022-07-17T06:39:35;0.95;;;0.85;;
32814;SDS011;19165;48.182;16.374;2022-07-17T06:42:01;4.65;;;1.17;;
32814;SDS011;19165;48.182;16.374;2022-07-17T06:44:27;4.68;;;1.20;;
32814;SDS011;19165;48.182;16.374;2022-07-17T06:46:54;3.33;;;1.08;;
32814;SDS011;19165;48.182;16.374;2022-07-17T06:49:20;2.80;;;1.00;;
32814;SDS011;19165;48.182;16.374;2022-07-17T06:51:46;3.08;;;1.20;;
32814;SDS011;19165;48.182;16.374;2022-07-17T06:54:13;2.88;;;1.17;;
32814;SDS011;19165;48.182;16.374;2022-07-17T06:56:39;4.60;;;1.50;;
32814;SDS011;19165;48.182;16.374;2022-07-17T06:59:05;1.85;;;1.13;;
32814;SDS011;19165;48.182;16.374;2022-07-17T07:01:34;3.85;;;1.30;;
32814;SDS011;19165;48.182;16.374;2022-07-17T07:04:02;2.20;;;1.17;;
32814;SDS011;19165;48.182;16.374;2022-07-17T07:06:29;3.78;;;1.33;;
32814;SDS011;19165;48.182;16.374;2022-07-17T07:08:55;2.53;;;1.10;;
32814;SDS011;19165;48.182;16.374;2022-07-17T07:11:22;5.68;;;1.20;;
32814;SDS011;19165;48.182;16.374;2022-07-17T07:13:48;2.67;;;1.30;;
32814;SDS011;19165;48.182;16.374;2022-07-17T07:16:14;4.25;;;1.20;;
32814;SDS011;19165;48.182;16.374;2022-07-17T07:18:40;3.70;;;1.25;;
32814;SDS011;19165;48.182;16.374;2022-07-17T07:21:07;2.90;;;1.30;;
32814;SDS011;19165;48.182;16.374;2022-07-17T07:23:33;2.53;;;1.15;;
32814;SDS011;19165;48.182;16.374;2022-07-17T07:26:01;2.83;;;1.02;;
32814;SDS011;19165;48.182;16.374;2022-07-17T07:28:27;2.97;;;1.10;;
32814;SDS011;19165;48.182;16.374;2022-07-17T07:30:52;5.30;;;1.30;;
32814;SDS011;19165;48.182;16.374;2022-07-17T07:33:18;3.65;;;1.20;;
32814;SDS011;19165;48.182;16.374;2022-07-17T07:35:44;5.53;;;1.15;;
32814;SDS011;19165;48.182;16.374;2022-07-17T07:38:12;6.40;;;1.13;;
32814;SDS011;19165;48.182;16.374;2022-07-17T07:40:38;2.63;;;1.00;;
32814;SDS011;19165;48.182;16.374;2022-07-17T07:43:04;4.68;;;0.95;;
32814;SDS011;19165;48.182;16.374;2022-07-17T07:45:29;3.65;;;1.27;;
32814;SDS011;19165;48.182;16.374;2022-07-17T07:47:59;4.15;;;1.08;;
32814;SDS011;19165;48.182;16.374;2022-07-17T07:50:25;4.68;;;1.20;;
32814;SDS011;19165;48.182;16.374;2022-07-17T07:52:51;3.45;;;1.20;;
32814;SDS011;19165;48.182;16.374;2022-07-17T07:55:19;2.40;;;1.13;;
32814;SDS011;19165;48.182;16.374;2022-07-17T07:57:46;3.92;;;1.40;;
32814;SDS011;19165;48.182;16.374;2022-07-17T08:00:13;1.95;;;1.08;;
32814;SDS011;19165;48.182;16.374;2022-07-17T08:02:40;4.13;;;1.27;;
32814;SDS011;19165;48.182;16.374;2022-07-17T08:05:06;5.13;;;1.33;;
32814;SDS011;19165;48.182;16.374;2022-07-17T08:07:34;3.08;;;1.27;;
32814;SDS011;19165;48.182;16.374;2022-07-17T08:10:00;2.25;;;1.00;;
32814;SDS011;19165;48.182;16.374;2022-07-17T08:12:27;2.05;;;1.08;;
32814;SDS011;19165;48.182;16.374;2022-07-17T08:14:53;1.88;;;1.00;;
32814;SDS011;19165;48.182;16.374;2022-07-17T08:17:19;3.20;;;1.10;;
32814;SDS011;19165;48.182;16.374;2022-07-17T08:19:45;10.65;;;1.08;;
32814;SDS011;19165;48.182;16.374;2022-07-17T08:22:11;1.42;;;0.90;;
32814;SDS011;19165;48.182;16.374;2022-07-17T08:24:37;3.45;;;0.95;;
32814;SDS011;19165;48.182;16.374;2022-07-17T08:27:03;4.18;;;0.88;;
32814;SDS011;19165;48.182;16.374;2022-07-17T08:29:31;3.83;;;0.80;;
32814;SDS011;19165;48.182;16.374;2022-07-17T08:31:57;2.53;;;1.08;;
32814;SDS011;19165;48.182;16.374;2022-07-17T08:34:23;2.47;;;0.98;;
32814;SDS011;19165;48.182;16.374;2022-07-17T08:36:49;3.22;;;1.02;;
32814;SDS011;19165;48.182;16.374;2022-07-17T08:39:16;6.65;;;1.60;;
32814;SDS011;19165;48.182;16.374;2022-07-17T08:41:42;5.35;;;1.17;;
32814;SDS011;19165;48.182;16.374;2022-07-17T08:44:08;6.03;;;1.20;;
32814;SDS011;19165;48.182;16.374;2022-07-17T08:46:36;2.70;;;0.95;;
32814;SDS011;19165;48.182;16.374;2022-07-17T08:49:03;3.45;;;1.10;;
32814;SDS011;19165;48.182;16.374;2022-07-17T08:51:30;2.53;;;1.00;;
32814;SDS011;19165;48.182;16.374;2022-07-17T08:53:57;2.22;;;0.90;;
32814;SDS011;19165;48.182;16.374;2022-07-17T08:56:23;2.70;;;0.93;;
32814;SDS011;19165;48.182;16.374;2022-07-17T08:58:50;4.07;;;1.20;;
32814;SDS011;19165;48.182;16.374;2022-07-17T09:01:17;2.55;;;1.00;;
32814;SDS011;19165;48.182;16.374;2022-07-17T09:03:53;4.00;;;1.20;;
32814;SDS011;19165;48.182;16.374;2022-07-17T09:06:21;3.63;;;1.63;;
32814;SDS011;19165;48.182;16.374;2022-07-17T09:08:47;3.47;;;1.10;;
32814;SDS011;19165;48.182;16.374;2022-07-17T09:11:24;2.58;;;0.95;;
32814;SDS011;19165;48.182;16.374;2022-07-17T09:13:50;2.45;;;1.10;;
32814;SDS011;19165;48.182;16.374;2022-07-17T09:16:18;2.85;;;1.20;;
32814;SDS011;19165;48.182;16.374;2022-07-17T09:18:44;4.50;;;1.13;;
32814;SDS011;19165;48.182;16.374;2022-07-17T09:21:17;5.15;;;1.10;;
32814;SDS011;19165;48.182;16.374;2022-07-17T09:26:10;3.55;;;1.02;;
32814;SDS011;19165;48.182;16.374;2022-07-17T09:28:43;2.80;;;1.50;;
32814;SDS011;19165;48.182;16.374;2022-07-17T09:31:10;3.95;;;1.30;;
32814;SDS011;19165;48.182;16.374;2022-07-17T09:33:36;5.32;;;1.38;;
32814;SDS011;19165;48.182;16.374;2022-07-17T09:36:06;2.72;;;1.02;;
32814;SDS011;19165;48.182;16.374;2022-07-17T09:38:35;3.15;;;1.10;;
32814;SDS011;19165;48.182;16.374;2022-07-17T09:41:04;2.88;;;1.10;;
32814;SDS011;19165;48.182;16.374;2022-07-17T09:43:38;2.63;;;1.17;;
32814;SDS011;19165;48.182;16.374;2022-07-17T09:46:05;4.88;;;1.15;;
32814;SDS011;19165;48.182;16.374;2022-07-17T09:48:33;2.65;;;1.30;;
32814;SDS011;19165;48.182;16.374;2022-07-17T09:51:00;1.38;;;0.90;;
32814;SDS011;19165;48.182;16.374;2022-07-17T09:53:27;13.63;;;1.67;;
32814;SDS011;19165;48.182;16.374;2022-07-17T09:55:56;5.05;;;1.00;;
32814;SDS011;19165;48.182;16.374;2022-07-17T09:58:25;6.65;;;1.40;;
32814;SDS011;19165;48.182;16.374;2022-07-17T10:00:51;2.10;;;1.17;;
32814;SDS011;19165;48.182;16.374;2022-07-17T10:03:18;3.45;;;1.88;;
32814;SDS011;19165;48.182;16.374;2022-07-17T10:05:44;2.67;;;1.13;;
32814;SDS011;19165;48.182;16.374;2022-07-17T10:08:11;2.95;;;1.08;;
32814;SDS011;19165;48.182;16.374;2022-07-17T10:10:37;6.28;;;1.50;;
32814;SDS011;19165;48.182;16.374;2022-07-17T10:13:05;3.20;;;1.20;;
32814;SDS011;19165;48.182;16.374;2022-07-17T10:15:31;3.00;;;1.23;;
32814;SDS011;19165;48.182;16.374;2022-07-17T10:18:04;2.17;;;1.00;;
32814;SDS011;19165;48.182;16.374;2022-07-17T10:20:30;1.55;;;1.20;;
32814;SDS011;19165;48.182;16.374;2022-07-17T10:22:56;3.33;;;1.30;;
32814;SDS011;19165;48.182;16.374;2022-07-17T10:25:22;2.33;;;1.27;;
32814;SDS011;19165;48.182;16.374;2022-07-17T10:27:49;2.78;;;1.48;;
32814;SDS011;19165;48.182;16.374;2022-07-17T10:30:22;1.73;;;1.30;;
32814;SDS011;19165;48.182;16.374;2022-07-17T10:32:53;4.38;;;1.50;;
32814;SDS011;19165;48.182;16.374;2022-07-17T10:35:20;2.60;;;1.38;;
32814;SDS011;19165;48.182;16.374;2022-07-17T10:37:47;3.20;;;1.27;;
32814;SDS011;19165;48.182;16.374;2022-07-17T10:40:15;2.78;;;1.25;;
32814;SDS011;19165;48.182;16.374;2022-07-17T10:42:44;3.05;;;1.40;;
32814;SDS011;19165;48.182;16.374;2022-07-17T10:45:20;2.70;;;1.40;;
32814;SDS011;19165;48.182;16.374;2022-07-17T10:47:52;4.22;;;1.55;;
32814;SDS011;19165;48.182;16.374;2022-07-17T10:50:21;2.20;;;1.40;;
32814;SDS011;19165;48.182;16.374;2022-07-17T10:52:58;4.05;;;1.23;;
32814;SDS011;19165;48.182;16.374;2022-07-17T10:55:25;3.10;;;1.60;;
32814;SDS011;19165;48.182;16.374;2022-07-17T10:57:52;3.58;;;1.60;;
32814;SDS011;19165;48.182;16.374;2022-07-17T11:00:19;2.85;;;1.42;;
32814;SDS011;19165;48.182;16.374;2022-07-17T11:02:46;1.95;;;1.33;;
32814;SDS011;19165;48.182;16.374;2022-07-17T11:05:13;2.13;;;1.33;;
32814;SDS011;19165;48.182;16.374;2022-07-17T11:07:53;3.22;;;1.30;;
32814;SDS011;19165;48.182;16.374;2022-07-17T11:10:21;3.30;;;1.63;;
32814;SDS011;19165;48.182;16.374;2022-07-17T11:12:50;2.50;;;1.83;;
32814;SDS011;19165;48.182;16.374;2022-07-17T11:15:16;3.30;;;1.23;;
32814;SDS011;19165;48.182;16.374;2022-07-17T11:17:48;4.05;;;1.80;;
32814;SDS011;19165;48.182;16.374;2022-07-17T11:20:14;3.50;;;1.42;;
32814;SDS011;19165;48.182;16.374;2022-07-17T11:22:41;5.30;;;1.50;;
32814;SDS011;19165;48.182;16.374;2022-07-17T11:25:07;1.92;;;1.20;;
32814;SDS011;19165;48.182;16.374;2022-07-17T11:27:36;3.25;;;1.20;;
32814;SDS011;19165;48.182;16.374;2022-07-17T11:30:04;2.38;;;1.35;;
32814;SDS011;19165;48.182;16.374;2022-07-17T11:32:36;2.05;;;1.30;;
32814;SDS011;19165;48.182;16.374;2022-07-17T11:35:14;4.75;;;1.38;;
32814;SDS011;19165;48.182;16.374;2022-07-17T11:37:41;3.80;;;1.70;;
32814;SDS011;19165;48.182;16.374;2022-07-17T11:40:07;2.38;;;1.38;;
32814;SDS011;19165;48.182;16.374;2022-07-17T11:42:34;1.95;;;1.42;;
32814;SDS011;19165;48.182;16.374;2022-07-17T11:45:00;10.43;;;1.80;;
32814;SDS011;19165;48.182;16.374;2022-07-17T11:47:26;4.65;;;1.50;;
32814;SDS011;19165;48.182;16.374;2022-07-17T11:50:03;2.03;;;1.65;;
32814;SDS011;19165;48.182;16.374;2022-07-17T11:52:38;4.60;;;1.60;;
32814;SDS011;19165;48.182;16.374;2022-07-17T11:55:05;1.60;;;1.50;;
32814;SDS011;19165;48.182;16.374;2022-07-17T11:57:40;2.45;;;1.40;;
32814;SDS011;19165;48.182;16.374;2022-07-17T12:00:07;1.95;;;1.25;;
32814;SDS011;19165;48.182;16.374;2022-07-17T12:02:35;3.55;;;1.50;;
32814;SDS011;19165;48.182;16.374;2022-07-17T12:05:01;1.50;;;1.40;;
32814;SDS011;19165;48.182;16.374;2022-07-17T12:07:39;2.28;;;1.50;;
32814;SDS011;19165;48.182;16.374;2022-07-17T12:10:13;2.50;;;1.50;;
32814;SDS011;19165;48.182;16.374;2022-07-17T12:12:50;1.35;;;1.20;;
32814;SDS011;19165;48.182;16.374;2022-07-17T12:15:17;2.33;;;1.40;;
32814;SDS011;19165;48.182;16.374;2022-07-17T12:17:43;3.13;;;1.58;;
32814;SDS011;19165;48.182;16.374;2022-07-17T12:20:10;2.58;;;1.92;;
32814;SDS011;19165;48.182;16.374;2022-07-17T12:22:43;2.78;;;1.77;;
32814;SDS011;19165;48.182;16.374;2022-07-17T12:25:09;4.28;;;1.80;;
32814;SDS011;19165;48.182;16.374;2022-07-17T12:27:46;2.03;;;1.80;;
32814;SDS011;19165;48.182;16.374;2022-07-17T12:30:12;4.03;;;1.80;;
32814;SDS011;19165;48.182;16.374;2022-07-17T12:32:40;2.50;;;2.10;;
32814;SDS011;19165;48.182;16.374;2022-07-17T12:35:06;1.73;;;1.50;;
32814;SDS011;19165;48.182;16.374;2022-07-17T12:37:33;2.25;;;2.00;;
32814;SDS011;19165;48.182;16.374;2022-07-17T12:40:00;3.97;;;2.42;;
32814;SDS011;19165;48.182;16.374;2022-07-17T12:42:26;3.38;;;2.00;;
32814;SDS011;19165;48.182;16.374;2022-07-17T12:44:52;3.38;;;2.10;;
32814;SDS011;19165;48.182;16.374;2022-07-17T12:47:18;4.25;;;2.40;;
32814;SDS011;19165;48.182;16.374;2022-07-17T12:49:44;2.80;;;2.55;;
32814;SDS011;19165;48.182;16.374;2022-07-17T12:52:10;3.53;;;2.20;;
32814;SDS011;19165;48.182;16.374;2022-07-17T12:54:36;2.22;;;2.00;;
32814;SDS011;19165;48.182;16.374;2022-07-17T12:57:03;3.85;;;1.80;;
32814;SDS011;19165;48.182;16.374;2022-07-17T12:59:30;11.48;;;2.80;;
32814;SDS011;19165;48.182;16.374;2022-07-17T13:01:55;1.88;;;1.63;;
32814;SDS011;19165;48.182;16.374;2022-07-17T13:04:21;2.47;;;1.70;;
32814;SDS011;19165;48.182;16.374;2022-07-17T13:06:47;2.70;;;1.60;;
32814;SDS011;19165;48.182;16.374;2022-07-17T13:09:13;6.05;;;1.75;;
32814;SDS011;19165;48.182;16.374;2022-07-17T13:11:40;4.95;;;1.73;;
32814;SDS011;19165;48.182;16.374;2022-07-17T13:14:07;2.35;;;1.50;;
32814;SDS011;19165;48.182;16.374;2022-07-17T13:16:36;3.70;;;1.88;;
32814;SDS011;19165;48.182;16.374;2022-07-17T13:19:02;2.70;;;1.80;;
32814;SDS011;19165;48.182;16.374;2022-07-17T13:21:28;4.80;;;2.30;;
32814;SDS011;19165;48.182;16.374;2022-07-17T13:23:54;5.07;;;2.17;;
32814;SDS011;19165;48.182;16.374;2022-07-17T13:26:20;8.57;;;2.53;;
32814;SDS011;19165;48.182;16.374;2022-07-17T13:28:46;2.97;;;2.15;;
32814;SDS011;19165;48.182;16.374;2022-07-17T13:31:13;5.50;;;2.20;;
32814;SDS011;19165;48.182;16.374;2022-07-17T13:33:39;2.33;;;2.13;;
32814;SDS011;19165;48.182;16.374;2022-07-17T13:36:06;3.10;;;2.13;;
32814;SDS011;19165;48.182;16.374;2022-07-17T13:38:32;3.78;;;2.00;;
32814;SDS011;19165;48.182;16.374;2022-07-17T13:40:58;3.90;;;1.90;;
32814;SDS011;19165;48.182;16.374;2022-07-17T13:43:24;3.58;;;1.80;;
32814;SDS011;19165;48.182;16.374;2022-07-17T13:45:50;6.38;;;2.40;;
32814;SDS011;19165;48.182;16.374;2022-07-17T13:48:17;3.88;;;2.00;;
32814;SDS011;19165;48.182;16.374;2022-07-17T13:50:43;4.35;;;2.40;;
32814;SDS011;19165;48.182;16.374;2022-07-17T13:53:10;2.72;;;2.30;;
32814;SDS011;19165;48.182;16.374;2022-07-17T13:55:55;5.65;;;2.88;;
32814;SDS011;19165;48.182;16.374;2022-07-17T13:58:21;2.75;;;2.55;;
32814;SDS011;19165;48.182;16.374;2022-07-17T14:00:47;4.88;;;3.22;;
32814;SDS011;19165;48.182;16.374;2022-07-17T14:03:12;5.45;;;3.30;;
32814;SDS011;19165;48.182;16.374;2022-07-17T14:05:40;3.30;;;3.00;;
32814;SDS011;19165;48.182;16.374;2022-07-17T14:08:06;4.70;;;3.00;;
32814;SDS011;19165;48.182;16.374;2022-07-17T14:10:32;3.15;;;2.85;;
32814;SDS011;19165;48.182;16.374;2022-07-17T14:12:58;6.20;;;2.80;;
32814;SDS011;19165;48.182;16.374;2022-07-17T14:15:24;3.65;;;2.85;;
32814;SDS011;19165;48.182;16.374;2022-07-17T14:17:51;2.85;;;2.47;;
32814;SDS011;19165;48.182;16.374;2022-07-17T14:20:17;4.75;;;2.15;;
32814;SDS011;19165;48.182;16.374;2022-07-17T14:22:44;4.05;;;2.33;;
32814;SDS011;19165;48.182;16.374;2022-07-17T14:25:10;5.90;;;2.25;;
32814;SDS011;19165;48.182;16.374;2022-07-17T14:27:37;5.82;;;2.10;;
32814;SDS011;19165;48.182;16.374;2022-07-17T14:30:03;2.67;;;1.70;;
32814;SDS011;19165;48.182;16.374;2022-07-17T14:32:29;5.15;;;2.53;;
32814;SDS011;19165;48.182;16.374;2022-07-17T14:34:55;4.57;;;2.00;;
32814;SDS011;19165;48.182;16.374;2022-07-17T14:37:21;7.90;;;1.60;;